sensor_id;sensor_type;location;lat;lon;timestamp;pressure;altitude;pressure_sealevel;temperature
67599;BMP280;62026;39.230;9.122;2023-07-09T00:01:16;101280.72;;;27.58
67599;BMP280;62026;39.230;9.122;2023-07-09T00:03:44;101281.84;;;27.49
67599;BMP280;62026;39.230;9.122;2023-07-09T00:06:12;101285.84;;;27.51
67599;BMP280;62026;39.230;9.122;2023-07-09T00:08:44;101267.97;;;27.50
67599;BMP280;62026;39.230;9.122;2023-07-09T00:11:12;101267.63;;;27.43
67599;BMP280;62026;39.230;9.122;2023-07-09T00:13:38;101258.06;;;27.46
67599;BMP280;62026;39.230;9.122;2023-07-09T00:16:16;101270.84;;;27.45
67599;BMP280;62026;39.230;9.122;2023-07-09T00:18:44;101265.44;;;27.45
67599;BMP280;62026;39.230;9.122;2023-07-09T00:21:10;101260.00;;;27.45
67599;BMP280;62026;39.230;9.122;2023-07-09T00:23:36;101270.38;;;27.52
67599;BMP280;62026;39.230;9.122;2023-07-09T00:26:13;101279.13;;;27.49
67599;BMP280;62026;39.230;9.122;2023-07-09T00:28:41;101271.78;;;27.49
67599;BMP280;62026;39.230;9.122;2023-07-09T00:31:16;101267.34;;;27.53
67599;BMP280;62026;39.230;9.122;2023-07-09T00:33:43;101283.31;;;27.63
67599;BMP280;62026;39.230;9.122;2023-07-09T00:36:30;101271.78;;;27.58
67599;BMP280;62026;39.230;9.122;2023-07-09T00:39:01;101266.53;;;27.53
67599;BMP280;62026;39.230;9.122;2023-07-09T00:41:36;101266.53;;;27.53
67599;BMP280;62026;39.230;9.122;2023-07-09T00:44:31;101264.78;;;27.57
67599;BMP280;62026;39.230;9.122;2023-07-09T00:49:39;101272.94;;;27.57
67599;BMP280;62026;39.230;9.122;2023-07-09T00:52:28;101260.47;;;27.56
67599;BMP280;62026;39.230;9.122;2023-07-09T00:55:04;101261.38;;;27.43
67599;BMP280;62026;39.230;9.122;2023-07-09T00:57:31;101241.56;;;27.16
67599;BMP280;62026;39.230;9.122;2023-07-09T01:00:07;101265.84;;;27.30
67599;BMP280;62026;39.230;9.122;2023-07-09T01:02:38;101257.56;;;27.44
67599;BMP280;62026;39.230;9.122;2023-07-09T01:05:06;101261.72;;;27.50
67599;BMP280;62026;39.230;9.122;2023-07-09T01:07:32;101256.16;;;27.55
67599;BMP280;62026;39.230;9.122;2023-07-09T01:09:58;101258.06;;;27.46
67599;BMP280;62026;39.230;9.122;2023-07-09T01:12:25;101251.19;;;27.40
67599;BMP280;62026;39.230;9.122;2023-07-09T01:14:55;101246.09;;;27.47
67599;BMP280;62026;39.230;9.122;2023-07-09T01:17:27;101246.56;;;27.49
67599;BMP280;62026;39.230;9.122;2023-07-09T01:19:55;101244.19;;;27.56
67599;BMP280;62026;39.230;9.122;2023-07-09T01:22:23;101237.97;;;27.55
67599;BMP280;62026;39.230;9.122;2023-07-09T01:25:04;101243.06;;;27.57
67599;BMP280;62026;39.230;9.122;2023-07-09T01:27:36;101233.34;;;27.56
67599;BMP280;62026;39.230;9.122;2023-07-09T01:30:11;101248.16;;;27.58
67599;BMP280;62026;39.230;9.122;2023-07-09T01:32:38;101247.25;;;27.63
67599;BMP280;62026;39.230;9.122;2023-07-09T01:35:06;101247.56;;;27.61
67599;BMP280;62026;39.230;9.122;2023-07-09T01:37:37;101251.41;;;27.60
67599;BMP280;62026;39.230;9.122;2023-07-09T01:40:07;101265.78;;;27.61
67599;BMP280;62026;39.230;9.122;2023-07-09T01:42:36;101269.88;;;27.58
67599;BMP280;62026;39.230;9.122;2023-07-09T01:45:07;101259.53;;;27.60
67599;BMP280;62026;39.230;9.122;2023-07-09T01:47:33;101248.97;;;27.59
67599;BMP280;62026;39.230;9.122;2023-07-09T01:49:59;101242.13;;;27.61
67599;BMP280;62026;39.230;9.122;2023-07-09T01:52:31;101225.38;;;27.59
67599;BMP280;62026;39.230;9.122;2023-07-09T01:54:58;101232.22;;;27.57
67599;BMP280;62026;39.230;9.122;2023-07-09T01:57:28;101227.25;;;27.59
67599;BMP280;62026;39.230;9.122;2023-07-09T02:00:07;101219.13;;;27.59
67599;BMP280;62026;39.230;9.122;2023-07-09T02:02:45;101222.81;;;27.54
67599;BMP280;62026;39.230;9.122;2023-07-09T02:05:17;101222.94;;;27.58
67599;BMP280;62026;39.230;9.122;2023-07-09T02:07:45;101216.75;;;27.57
67599;BMP280;62026;39.230;9.122;2023-07-09T02:10:15;101203.94;;;27.58
67599;BMP280;62026;39.230;9.122;2023-07-09T02:12:41;101196.94;;;27.57
67599;BMP280;62026;39.230;9.122;2023-07-09T02:15:08;101196.47;;;27.55
67599;BMP280;62026;39.230;9.122;2023-07-09T02:17:35;101216.09;;;27.52
67599;BMP280;62026;39.230;9.122;2023-07-09T02:20:02;101212.63;;;27.60
67599;BMP280;62026;39.230;9.122;2023-07-09T02:22:29;101205.75;;;27.62
67599;BMP280;62026;39.230;9.122;2023-07-09T02:24:57;101211.16;;;27.62
67599;BMP280;62026;39.230;9.122;2023-07-09T02:27:24;101210.97;;;27.59
67599;BMP280;62026;39.230;9.122;2023-07-09T02:29:50;101195.53;;;27.59
67599;BMP280;62026;39.230;9.122;2023-07-09T02:32:26;101193.75;;;27.55
67599;BMP280;62026;39.230;9.122;2023-07-09T02:34:54;101194.25;;;27.57
67599;BMP280;62026;39.230;9.122;2023-07-09T02:37:24;101192.31;;;27.57
67599;BMP280;62026;39.230;9.122;2023-07-09T02:39:51;101177.81;;;27.53
67599;BMP280;62026;39.230;9.122;2023-07-09T02:42:20;101160.25;;;27.51
67599;BMP280;62026;39.230;9.122;2023-07-09T02:44:47;101172.69;;;27.52
67599;BMP280;62026;39.230;9.122;2023-07-09T02:47:14;101181.31;;;27.54
67599;BMP280;62026;39.230;9.122;2023-07-09T02:49:40;101165.16;;;27.49
67599;BMP280;62026;39.230;9.122;2023-07-09T02:52:07;101167.88;;;27.49
67599;BMP280;62026;39.230;9.122;2023-07-09T02:54:34;101171.09;;;27.51
67599;BMP280;62026;39.230;9.122;2023-07-09T02:57:00;101164.06;;;27.50
67599;BMP280;62026;39.230;9.122;2023-07-09T02:59:26;101159.75;;;27.49
67599;BMP280;62026;39.230;9.122;2023-07-09T03:01:56;101158.47;;;27.46
67599;BMP280;62026;39.230;9.122;2023-07-09T03:04:23;101152.25;;;27.46
67599;BMP280;62026;39.230;9.122;2023-07-09T03:06:49;101155.13;;;27.41
67599;BMP280;62026;39.230;9.122;2023-07-09T03:09:15;101147.63;;;27.38
67599;BMP280;62026;39.230;9.122;2023-07-09T03:11:41;101137.91;;;27.37
67599;BMP280;62026;39.230;9.122;2023-07-09T03:14:08;101145.56;;;27.35
67599;BMP280;62026;39.230;9.122;2023-07-09T03:16:35;101148.56;;;27.33
67599;BMP280;62026;39.230;9.122;2023-07-09T03:19:02;101142.69;;;27.40
67599;BMP280;62026;39.230;9.122;2023-07-09T03:21:30;101143.31;;;27.37
67599;BMP280;62026;39.230;9.122;2023-07-09T03:23:58;101137.72;;;27.33
67599;BMP280;62026;39.230;9.122;2023-07-09T03:26:24;101138.38;;;27.30
67599;BMP280;62026;39.230;9.122;2023-07-09T03:28:54;101136.00;;;27.29
67599;BMP280;62026;39.230;9.122;2023-07-09T03:31:22;101121.94;;;27.27
67599;BMP280;62026;39.230;9.122;2023-07-09T03:33:50;101129.28;;;27.26
67599;BMP280;62026;39.230;9.122;2023-07-09T03:36:17;101120.34;;;27.26
67599;BMP280;62026;39.230;9.122;2023-07-09T03:38:45;101115.22;;;27.24
67599;BMP280;62026;39.230;9.122;2023-07-09T03:41:12;101139.97;;;27.22
67599;BMP280;62026;39.230;9.122;2023-07-09T03:43:38;101129.59;;;27.24
67599;BMP280;62026;39.230;9.122;2023-07-09T03:46:03;101130.09;;;27.27
67599;BMP280;62026;39.230;9.122;2023-07-09T03:48:30;101131.84;;;27.22
67599;BMP280;62026;39.230;9.122;2023-07-09T03:50:56;101124.97;;;27.25
67599;BMP280;62026;39.230;9.122;2023-07-09T03:53:22;101128.59;;;27.20
67599;BMP280;62026;39.230;9.122;2023-07-09T03:55:54;101134.66;;;27.17
67599;BMP280;62026;39.230;9.122;2023-07-09T03:58:20;101130.84;;;27.18
67599;BMP280;62026;39.230;9.122;2023-07-09T04:00:46;101133.91;;;27.17
67599;BMP280;62026;39.230;9.122;2023-07-09T04:03:12;101136.75;;;27.12
67599;BMP280;62026;39.230;9.122;2023-07-09T04:05:38;101123.97;;;27.12
67599;BMP280;62026;39.230;9.122;2023-07-09T04:08:05;101140.25;;;27.12
67599;BMP280;62026;39.230;9.122;2023-07-09T04:10:31;101147.44;;;27.08
67599;BMP280;62026;39.230;9.122;2023-07-09T04:12:58;101146.78;;;27.11
67599;BMP280;62026;39.230;9.122;2023-07-09T04:15:24;101139.78;;;27.10
67599;BMP280;62026;39.230;9.122;2023-07-09T04:17:50;101129.91;;;27.06
67599;BMP280;62026;39.230;9.122;2023-07-09T04:20:17;101125.75;;;27.08
67599;BMP280;62026;39.230;9.122;2023-07-09T04:22:44;101125.56;;;27.05
67599;BMP280;62026;39.230;9.122;2023-07-09T04:25:11;101134.38;;;27.10
67599;BMP280;62026;39.230;9.122;2023-07-09T04:27:38;101129.91;;;27.14
67599;BMP280;62026;39.230;9.122;2023-07-09T04:30:11;101121.28;;;27.12
67599;BMP280;62026;39.230;9.122;2023-07-09T04:32:37;101132.59;;;27.14
67599;BMP280;62026;39.230;9.122;2023-07-09T04:35:04;101136.28;;;27.18
67599;BMP280;62026;39.230;9.122;2023-07-09T04:37:32;101128.00;;;27.15
67599;BMP280;62026;39.230;9.122;2023-07-09T04:39:58;101133.56;;;27.18
67599;BMP280;62026;39.230;9.122;2023-07-09T04:42:24;101132.47;;;27.19
67599;BMP280;62026;39.230;9.122;2023-07-09T04:44:50;101127.03;;;27.19
67599;BMP280;62026;39.230;9.122;2023-07-09T04:47:16;101129.13;;;27.22
67599;BMP280;62026;39.230;9.122;2023-07-09T04:49:42;101133.41;;;27.23
67599;BMP280;62026;39.230;9.122;2023-07-09T04:52:09;101130.84;;;27.18
67599;BMP280;62026;39.230;9.122;2023-07-09T04:54:40;101131.97;;;27.17
67599;BMP280;62026;39.230;9.122;2023-07-09T04:57:09;101136.91;;;27.15
67599;BMP280;62026;39.230;9.122;2023-07-09T04:59:35;101137.88;;;27.19
67599;BMP280;62026;39.230;9.122;2023-07-09T05:02:01;101127.34;;;27.18
67599;BMP280;62026;39.230;9.122;2023-07-09T05:04:27;101134.66;;;27.17
67599;BMP280;62026;39.230;9.122;2023-07-09T05:06:53;101142.69;;;27.22
67599;BMP280;62026;39.230;9.122;2023-07-09T05:09:19;101142.50;;;27.28
67599;BMP280;62026;39.230;9.122;2023-07-09T05:11:46;101150.81;;;27.31
67599;BMP280;62026;39.230;9.122;2023-07-09T05:14:12;101138.06;;;27.32
67599;BMP280;62026;39.230;9.122;2023-07-09T05:16:38;101130.38;;;27.34
67599;BMP280;62026;39.230;9.122;2023-07-09T05:19:07;101128.66;;;27.38
67599;BMP280;62026;39.230;9.122;2023-07-09T05:21:33;101143.03;;;27.38
67599;BMP280;62026;39.230;9.122;2023-07-09T05:24:00;101147.44;;;27.43
67599;BMP280;62026;39.230;9.122;2023-07-09T05:26:26;101154.81;;;27.51
67599;BMP280;62026;39.230;9.122;2023-07-09T05:28:52;101161.03;;;27.51
67599;BMP280;62026;39.230;9.122;2023-07-09T05:31:18;101169.50;;;27.50
67599;BMP280;62026;39.230;9.122;2023-07-09T05:33:45;101170.47;;;27.54
67599;BMP280;62026;39.230;9.122;2023-07-09T05:36:11;101176.22;;;27.61
67599;BMP280;62026;39.230;9.122;2023-07-09T05:38:44;101167.44;;;27.64
67599;BMP280;62026;39.230;9.122;2023-07-09T05:41:12;101174.13;;;27.66
67599;BMP280;62026;39.230;9.122;2023-07-09T05:43:38;101170.94;;;27.73
67599;BMP280;62026;39.230;9.122;2023-07-09T05:46:06;101166.94;;;27.79
67599;BMP280;62026;39.230;9.122;2023-07-09T05:48:32;101170.13;;;27.81
67599;BMP280;62026;39.230;9.122;2023-07-09T05:50:59;101179.69;;;27.87
67599;BMP280;62026;39.230;9.122;2023-07-09T05:53:25;101197.88;;;27.95
67599;BMP280;62026;39.230;9.122;2023-07-09T05:55:55;101191.81;;;27.98
67599;BMP280;62026;39.230;9.122;2023-07-09T05:58:22;101185.63;;;27.98
67599;BMP280;62026;39.230;9.122;2023-07-09T06:00:54;101184.50;;;28.07
67599;BMP280;62026;39.230;9.122;2023-07-09T06:03:23;101183.81;;;28.19
67599;BMP280;62026;39.230;9.122;2023-07-09T06:05:50;101195.94;;;28.22
67599;BMP280;62026;39.230;9.122;2023-07-09T06:08:16;101176.25;;;28.33
67599;BMP280;62026;39.230;9.122;2023-07-09T06:11:02;101175.13;;;28.43
67599;BMP280;62026;39.230;9.122;2023-07-09T06:13:30;101180.66;;;28.55
67599;BMP280;62026;39.230;9.122;2023-07-09T06:15:58;101187.06;;;28.59
67599;BMP280;62026;39.230;9.122;2023-07-09T06:18:25;101188.25;;;28.70
67599;BMP280;62026;39.230;9.122;2023-07-09T06:20:58;101203.59;;;28.75
67599;BMP280;62026;39.230;9.122;2023-07-09T06:23:25;101207.56;;;28.77
67599;BMP280;62026;39.230;9.122;2023-07-09T06:25:51;101201.63;;;28.84
67599;BMP280;62026;39.230;9.122;2023-07-09T06:28:22;101209.72;;;28.92
67599;BMP280;62026;39.230;9.122;2023-07-09T06:30:49;101207.75;;;29.02
67599;BMP280;62026;39.230;9.122;2023-07-09T06:33:18;101211.06;;;29.07
67599;BMP280;62026;39.230;9.122;2023-07-09T06:35:50;101206.06;;;29.18
67599;BMP280;62026;39.230;9.122;2023-07-09T06:38:18;101209.38;;;29.23
67599;BMP280;62026;39.230;9.122;2023-07-09T06:40:45;101208.69;;;29.35
67599;BMP280;62026;39.230;9.122;2023-07-09T06:43:11;101217.22;;;29.46
67599;BMP280;62026;39.230;9.122;2023-07-09T06:46:09;101230.31;;;29.52
67599;BMP280;62026;39.230;9.122;2023-07-09T06:48:34;101229.44;;;29.60
67599;BMP280;62026;39.230;9.122;2023-07-09T06:51:00;101225.75;;;29.65
67599;BMP280;62026;39.230;9.122;2023-07-09T06:53:28;101236.06;;;29.71
67599;BMP280;62026;39.230;9.122;2023-07-09T06:55:55;101237.13;;;29.79
67599;BMP280;62026;39.230;9.122;2023-07-09T06:58:26;101244.56;;;29.91
67599;BMP280;62026;39.230;9.122;2023-07-09T07:00:54;101240.94;;;29.99
67599;BMP280;62026;39.230;9.122;2023-07-09T07:03:22;101251.22;;;30.14
67599;BMP280;62026;39.230;9.122;2023-07-09T07:05:51;101261.53;;;30.08
67599;BMP280;62026;39.230;9.122;2023-07-09T07:08:22;101266.00;;;30.25
67599;BMP280;62026;39.230;9.122;2023-07-09T07:10:59;101271.44;;;30.25
67599;BMP280;62026;39.230;9.122;2023-07-09T07:13:38;101289.56;;;30.09
67599;BMP280;62026;39.230;9.122;2023-07-09T07:16:08;101286.19;;;30.24
67599;BMP280;62026;39.230;9.122;2023-07-09T07:18:35;101292.69;;;29.99
67599;BMP280;62026;39.230;9.122;2023-07-09T07:21:02;101294.03;;;30.13
67599;BMP280;62026;39.230;9.122;2023-07-09T07:23:28;101302.19;;;30.13
67599;BMP280;62026;39.230;9.122;2023-07-09T07:25:54;101310.34;;;30.46
67599;BMP280;62026;39.230;9.122;2023-07-09T07:28:21;101304.94;;;30.70
67599;BMP280;62026;39.230;9.122;2023-07-09T07:30:47;101299.91;;;30.60
67599;BMP280;62026;39.230;9.122;2023-07-09T07:33:22;101299.44;;;30.46
67599;BMP280;62026;39.230;9.122;2023-07-09T07:35:48;101326.88;;;30.29
67599;BMP280;62026;39.230;9.122;2023-07-09T07:38:15;101325.91;;;30.13
67599;BMP280;62026;39.230;9.122;2023-07-09T07:40:44;101331.28;;;30.01
67599;BMP280;62026;39.230;9.122;2023-07-09T07:43:10;101341.47;;;29.92
67599;BMP280;62026;39.230;9.122;2023-07-09T07:45:41;101349.38;;;30.05
67599;BMP280;62026;39.230;9.122;2023-07-09T07:48:08;101354.00;;;29.63
67599;BMP280;62026;39.230;9.122;2023-07-09T07:50:34;101364.13;;;29.83
67599;BMP280;62026;39.230;9.122;2023-07-09T07:53:02;101359.38;;;29.72
67599;BMP280;62026;39.230;9.122;2023-07-09T07:55:27;101391.31;;;29.25
67599;BMP280;62026;39.230;9.122;2023-07-09T07:57:53;101384.53;;;29.69
67599;BMP280;62026;39.230;9.122;2023-07-09T08:00:22;101404.28;;;29.66
67599;BMP280;62026;39.230;9.122;2023-07-09T08:02:48;101405.69;;;29.34
67599;BMP280;62026;39.230;9.122;2023-07-09T08:05:15;101419.16;;;29.39
67599;BMP280;62026;39.230;9.122;2023-07-09T08:07:41;101398.03;;;29.36
67599;BMP280;62026;39.230;9.122;2023-07-09T08:10:07;101375.47;;;28.80
67599;BMP280;62026;39.230;9.122;2023-07-09T08:12:34;101396.47;;;29.56
67599;BMP280;62026;39.230;9.122;2023-07-09T08:15:00;101401.78;;;29.52
67599;BMP280;62026;39.230;9.122;2023-07-09T08:17:26;101391.13;;;29.38
67599;BMP280;62026;39.230;9.122;2023-07-09T08:19:54;101369.63;;;29.08
67599;BMP280;62026;39.230;9.122;2023-07-09T08:22:21;101377.41;;;29.26
67599;BMP280;62026;39.230;9.122;2023-07-09T08:24:51;101382.88;;;30.06
67599;BMP280;62026;39.230;9.122;2023-07-09T08:27:18;101374.75;;;29.76
67599;BMP280;62026;39.230;9.122;2023-07-09T08:29:44;101358.28;;;29.94
67599;BMP280;62026;39.230;9.122;2023-07-09T08:32:14;101360.72;;;30.28
67599;BMP280;62026;39.230;9.122;2023-07-09T08:34:41;101375.22;;;30.53
67599;BMP280;62026;39.230;9.122;2023-07-09T08:37:09;101371.91;;;30.47
67599;BMP280;62026;39.230;9.122;2023-07-09T08:39:35;101361.28;;;30.54
67599;BMP280;62026;39.230;9.122;2023-07-09T08:42:16;101379.25;;;30.35
67599;BMP280;62026;39.230;9.122;2023-07-09T08:52:36;101359.03;;;30.36
67599;BMP280;62026;39.230;9.122;2023-07-09T08:55:21;101358.53;;;30.54
67599;BMP280;62026;39.230;9.122;2023-07-09T08:58:09;101370.63;;;30.65
67599;BMP280;62026;39.230;9.122;2023-07-09T09:00:57;101367.00;;;30.73
67599;BMP280;62026;39.230;9.122;2023-07-09T09:03:42;101362.34;;;30.86
67599;BMP280;62026;39.230;9.122;2023-07-09T09:06:22;101354.72;;;31.16
67599;BMP280;62026;39.230;9.122;2023-07-09T09:09:19;101358.59;;;31.27
67599;BMP280;62026;39.230;9.122;2023-07-09T09:12:21;101359.84;;;30.93
67599;BMP280;62026;39.230;9.122;2023-07-09T09:14:57;101361.09;;;31.08
67599;BMP280;62026;39.230;9.122;2023-07-09T09:17:26;101350.88;;;31.41
67599;BMP280;62026;39.230;9.122;2023-07-09T09:19:58;101360.28;;;31.44
67599;BMP280;62026;39.230;9.122;2023-07-09T09:22:33;101365.72;;;31.68
67599;BMP280;62026;39.230;9.122;2023-07-09T09:25:28;101357.38;;;30.55
67599;BMP280;62026;39.230;9.122;2023-07-09T09:27:55;101358.56;;;30.79
67599;BMP280;62026;39.230;9.122;2023-07-09T09:30:24;101359.75;;;31.02
67599;BMP280;62026;39.230;9.122;2023-07-09T09:32:59;101354.91;;;30.50
67599;BMP280;62026;39.230;9.122;2023-07-09T09:35:38;101351.75;;;30.27
67599;BMP280;62026;39.230;9.122;2023-07-09T09:38:21;101351.41;;;30.62
67599;BMP280;62026;39.230;9.122;2023-07-09T09:40:48;101348.50;;;30.79
67599;BMP280;62026;39.230;9.122;2023-07-09T09:43:18;101343.94;;;30.38
67599;BMP280;62026;39.230;9.122;2023-07-09T09:45:48;101335.81;;;30.50
67599;BMP280;62026;39.230;9.122;2023-07-09T09:48:37;101341.66;;;30.97
67599;BMP280;62026;39.230;9.122;2023-07-09T09:51:06;101330.06;;;30.64
67599;BMP280;62026;39.230;9.122;2023-07-09T09:53:40;101329.47;;;30.58
67599;BMP280;62026;39.230;9.122;2023-07-09T09:56:17;101335.41;;;30.97
67599;BMP280;62026;39.230;9.122;2023-07-09T09:58:44;101337.75;;;30.62
67599;BMP280;62026;39.230;9.122;2023-07-09T10:01:17;101329.69;;;30.53
67599;BMP280;62026;39.230;9.122;2023-07-09T10:03:47;101325.53;;;30.35
67599;BMP280;62026;39.230;9.122;2023-07-09T10:06:29;101321.41;;;30.29
67599;BMP280;62026;39.230;9.122;2023-07-09T10:09:08;101322.19;;;30.50
67599;BMP280;62026;39.230;9.122;2023-07-09T10:17:44;101331.31;;;30.79
67599;BMP280;62026;39.230;9.122;2023-07-09T10:20:41;101328.94;;;31.01
67599;BMP280;62026;39.230;9.122;2023-07-09T10:23:35;101332.69;;;30.97
67599;BMP280;62026;39.230;9.122;2023-07-09T10:33:18;101336.47;;;30.47
67599;BMP280;62026;39.230;9.122;2023-07-09T10:35:27;101329.41;;;30.34
67599;BMP280;62026;39.230;9.122;2023-07-09T10:38:26;101337.84;;;30.53
67599;BMP280;62026;39.230;9.122;2023-07-09T10:41:01;101332.41;;;30.53
67599;BMP280;62026;39.230;9.122;2023-07-09T10:44:00;101343.03;;;30.46
67599;BMP280;62026;39.230;9.122;2023-07-09T10:46:34;101348.94;;;30.36
67599;BMP280;62026;39.230;9.122;2023-07-09T10:49:03;101333.47;;;29.87
67599;BMP280;62026;39.230;9.122;2023-07-09T10:52:01;101348.44;;;29.80
67599;BMP280;62026;39.230;9.122;2023-07-09T10:55:29;101332.09;;;30.22
67599;BMP280;62026;39.230;9.122;2023-07-09T10:58:10;101354.97;;;30.09
67599;BMP280;62026;39.230;9.122;2023-07-09T11:00:42;101346.13;;;29.91
67599;BMP280;62026;39.230;9.122;2023-07-09T11:03:40;101334.16;;;30.04
67599;BMP280;62026;39.230;9.122;2023-07-09T11:06:22;101341.53;;;30.04
67599;BMP280;62026;39.230;9.122;2023-07-09T11:08:55;101337.25;;;30.36
67599;BMP280;62026;39.230;9.122;2023-07-09T11:11:31;101327.00;;;30.00
67599;BMP280;62026;39.230;9.122;2023-07-09T11:14:08;101330.69;;;30.16
67599;BMP280;62026;39.230;9.122;2023-07-09T11:16:41;101332.75;;;30.19
67599;BMP280;62026;39.230;9.122;2023-07-09T11:19:18;101322.09;;;29.72
67599;BMP280;62026;39.230;9.122;2023-07-09T11:25:09;101326.59;;;29.89
67599;BMP280;62026;39.230;9.122;2023-07-09T11:28:04;101322.28;;;29.67
67599;BMP280;62026;39.230;9.122;2023-07-09T11:30:32;101314.56;;;29.69
67599;BMP280;62026;39.230;9.122;2023-07-09T11:33:02;101317.97;;;29.37
67599;BMP280;62026;39.230;9.122;2023-07-09T11:35:46;101312.81;;;29.44
67599;BMP280;62026;39.230;9.122;2023-07-09T11:38:24;101325.63;;;29.44
67599;BMP280;62026;39.230;9.122;2023-07-09T11:40:54;101319.94;;;29.57
67599;BMP280;62026;39.230;9.122;2023-07-09T11:43:34;101303.94;;;29.56
67599;BMP280;62026;39.230;9.122;2023-07-09T11:46:25;101318.97;;;29.32
67599;BMP280;62026;39.230;9.122;2023-07-09T11:48:54;101308.41;;;29.31
67599;BMP280;62026;39.230;9.122;2023-07-09T11:51:45;101305.13;;;29.46
67599;BMP280;62026;39.230;9.122;2023-07-09T11:54:13;101312.41;;;29.54
67599;BMP280;62026;39.230;9.122;2023-07-09T11:56:53;101313.69;;;29.36
67599;BMP280;62026;39.230;9.122;2023-07-09T11:59:19;101312.81;;;29.44
67599;BMP280;62026;39.230;9.122;2023-07-09T12:01:47;101315.25;;;29.37
67599;BMP280;62026;39.230;9.122;2023-07-09T12:04:21;101306.25;;;29.45
67599;BMP280;62026;39.230;9.122;2023-07-09T12:06:52;101303.78;;;29.52
67599;BMP280;62026;39.230;9.122;2023-07-09T12:09:22;101301.38;;;29.30
67599;BMP280;62026;39.230;9.122;2023-07-09T12:11:50;101301.75;;;29.20
67599;BMP280;62026;39.230;9.122;2023-07-09T12:14:20;101299.78;;;29.29
67599;BMP280;62026;39.230;9.122;2023-07-09T12:16:50;101294.50;;;29.53
67599;BMP280;62026;39.230;9.122;2023-07-09T12:19:22;101284.00;;;29.43
67599;BMP280;62026;39.230;9.122;2023-07-09T12:21:56;101283.81;;;29.27
67599;BMP280;62026;39.230;9.122;2023-07-09T12:24:25;101286.75;;;29.14
67599;BMP280;62026;39.230;9.122;2023-07-09T12:29:44;101289.19;;;29.07
67599;BMP280;62026;39.230;9.122;2023-07-09T12:32:16;101285.94;;;29.13
67599;BMP280;62026;39.230;9.122;2023-07-09T12:34:49;101286.88;;;29.17
67599;BMP280;62026;39.230;9.122;2023-07-09T12:37:16;101284.75;;;29.23
67599;BMP280;62026;39.230;9.122;2023-07-09T12:39:42;101292.75;;;29.28
67599;BMP280;62026;39.230;9.122;2023-07-09T12:42:27;101283.47;;;29.29
67599;BMP280;62026;39.230;9.122;2023-07-09T12:44:54;101292.00;;;29.10
67599;BMP280;62026;39.230;9.122;2023-07-09T12:47:23;101272.75;;;28.94
67599;BMP280;62026;39.230;9.122;2023-07-09T12:49:51;101287.28;;;28.61
67599;BMP280;62026;39.230;9.122;2023-07-09T12:52:25;101276.22;;;29.04
67599;BMP280;62026;39.230;9.122;2023-07-09T12:55:00;101285.94;;;28.75
67599;BMP280;62026;39.230;9.122;2023-07-09T12:57:28;101281.63;;;28.83
67599;BMP280;62026;39.230;9.122;2023-07-09T12:59:55;101285.41;;;28.90
67599;BMP280;62026;39.230;9.122;2023-07-09T13:02:25;101279.81;;;28.87
67599;BMP280;62026;39.230;9.122;2023-07-09T13:05:04;101290.22;;;28.85
67599;BMP280;62026;39.230;9.122;2023-07-09T13:07:38;101294.69;;;28.89
67599;BMP280;62026;39.230;9.122;2023-07-09T13:12:34;101296.00;;;28.75
67599;BMP280;62026;39.230;9.122;2023-07-09T13:15:00;101305.06;;;28.87
67599;BMP280;62026;39.230;9.122;2023-07-09T13:17:31;101295.97;;;28.83
67599;BMP280;62026;39.230;9.122;2023-07-09T13:19:57;101292.25;;;28.59
67599;BMP280;62026;39.230;9.122;2023-07-09T13:22:25;101292.56;;;28.48
67599;BMP280;62026;39.230;9.122;2023-07-09T13:24:51;101291.72;;;28.74
67599;BMP280;62026;39.230;9.122;2023-07-09T13:27:17;101286.09;;;28.79
67599;BMP280;62026;39.230;9.122;2023-07-09T13:29:43;101296.25;;;28.99
67599;BMP280;62026;39.230;9.122;2023-07-09T13:32:16;101299.25;;;29.06
67599;BMP280;62026;39.230;9.122;2023-07-09T13:34:42;101302.97;;;28.93
67599;BMP280;62026;39.230;9.122;2023-07-09T13:37:14;101293.06;;;28.59
67599;BMP280;62026;39.230;9.122;2023-07-09T13:39:41;101295.56;;;29.02
67599;BMP280;62026;39.230;9.122;2023-07-09T13:42:15;101299.69;;;28.79
67599;BMP280;62026;39.230;9.122;2023-07-09T13:44:45;101297.50;;;28.55
67599;BMP280;62026;39.230;9.122;2023-07-09T13:47:20;101292.50;;;28.83
67599;BMP280;62026;39.230;9.122;2023-07-09T13:49:47;101287.16;;;28.40
67599;BMP280;62026;39.230;9.122;2023-07-09T13:52:21;101281.44;;;28.07
67599;BMP280;62026;39.230;9.122;2023-07-09T13:54:49;101284.38;;;28.57
67599;BMP280;62026;39.230;9.122;2023-07-09T13:57:20;101290.41;;;28.80
67599;BMP280;62026;39.230;9.122;2023-07-09T13:59:48;101283.50;;;28.36
67599;BMP280;62026;39.230;9.122;2023-07-09T14:02:29;101288.59;;;28.46
67599;BMP280;62026;39.230;9.122;2023-07-09T14:05:01;101271.69;;;28.15
67599;BMP280;62026;39.230;9.122;2023-07-09T14:07:34;101278.25;;;28.22
67599;BMP280;62026;39.230;9.122;2023-07-09T14:10:05;101274.22;;;28.20
67599;BMP280;62026;39.230;9.122;2023-07-09T14:12:32;101273.09;;;28.12
67599;BMP280;62026;39.230;9.122;2023-07-09T14:15:01;101282.19;;;28.59
67599;BMP280;62026;39.230;9.122;2023-07-09T14:17:28;101293.25;;;28.37
67599;BMP280;62026;39.230;9.122;2023-07-09T14:19:54;101296.59;;;28.34
67599;BMP280;62026;39.230;9.122;2023-07-09T14:22:37;101296.41;;;28.39
67599;BMP280;62026;39.230;9.122;2023-07-09T14:25:05;101298.34;;;28.38
67599;BMP280;62026;39.230;9.122;2023-07-09T14:27:32;101301.69;;;28.52
67599;BMP280;62026;39.230;9.122;2023-07-09T14:29:58;101310.78;;;28.48
67599;BMP280;62026;39.230;9.122;2023-07-09T14:32:36;101310.31;;;28.46
67599;BMP280;62026;39.230;9.122;2023-07-09T14:35:17;101301.00;;;28.64
67599;BMP280;62026;39.230;9.122;2023-07-09T14:37:45;101287.81;;;28.37
67599;BMP280;62026;39.230;9.122;2023-07-09T14:40:14;101287.47;;;28.38
67599;BMP280;62026;39.230;9.122;2023-07-09T14:42:41;101282.97;;;28.51
67599;BMP280;62026;39.230;9.122;2023-07-09T14:45:23;101292.53;;;28.57
67599;BMP280;62026;39.230;9.122;2023-07-09T14:47:53;101282.94;;;28.60
67599;BMP280;62026;39.230;9.122;2023-07-09T14:50:19;101288.25;;;28.56